createdAt,value
2019-01-04T05:01:10.363Z,31.77
2019-01-04T05:03:45.499Z,32.13
2019-01-04T05:06:20.659Z,32.43
2019-01-04T05:08:55.760Z,32.77
2019-01-04T05:11:30.846Z,32.27
2019-01-04T05:14:06.057Z,33.17
2019-01-04T06:00:59.543Z,26.30
2019-01-04T06:03:21.991Z,26.17
2019-01-04T06:05:44.444Z,25.03
2019-01-04T06:08:06.962Z,26.33
2019-01-04T06:10:29.434Z,25.27
2019-01-04T06:12:51.865Z,26.93
2019-01-04T07:01:59.531Z,25.27
2019-01-04T07:04:21.990Z,25.20
2019-01-04T07:06:44.435Z,26.13
2019-01-04T07:09:06.896Z,25.93
2019-01-04T07:11:29.342Z,27.97
2019-01-04T07:13:51.919Z,27.60
2019-01-04T08:01:55.338Z,22.13
2019-01-04T08:04:30.279Z,22.00
2019-01-04T08:07:05.207Z,22.60
2019-01-04T08:09:40.253Z,21.47
2019-01-04T08:12:02.721Z,21.53
2019-01-04T08:14:25.246Z,22.17
2019-01-04T09:00:35.959Z,23.17
2019-01-04T09:02:58.402Z,21.70
2019-01-04T09:05:20.862Z,21.83
2019-01-04T09:07:43.311Z,20.93
2019-01-04T09:10:07.239Z,16.27
2019-01-04T09:12:29.690Z,18.17
2019-01-04T09:14:52.126Z,18.63
2019-01-04T10:02:33.163Z,19.97
2019-01-04T10:04:55.626Z,17.90
2019-01-04T10:07:18.089Z,15.57
2019-01-04T10:09:40.517Z,18.30
2019-01-04T10:12:02.958Z,19.53
2019-01-04T10:14:26.534Z,18.37
2019-01-04T11:02:29.368Z,15.07
2019-01-04T11:05:04.119Z,15.20
2019-01-04T11:07:39.510Z,16.40
2019-01-04T11:10:14.762Z,15.97
2019-01-04T11:12:50.018Z,14.27
2019-01-04T12:02:34.666Z,14.77
2019-01-04T12:05:00.005Z,16.33
2019-01-04T12:07:22.480Z,14.60
2019-01-04T12:09:57.761Z,13.70
2019-01-04T12:12:32.936Z,15.33
2019-01-04T12:47:39.990Z,14.47
2019-01-04T12:50:15.073Z,15.30
2019-01-04T12:52:51.283Z,15.50
2019-01-04T12:55:26.271Z,18.03
2019-01-04T12:58:01.334Z,19.30
2019-01-04T13:00:36.379Z,15.93
2019-01-04T13:03:12.874Z,16.83
2019-01-04T13:05:47.509Z,16.63
2019-01-04T13:08:22.968Z,16.47
2019-01-04T13:10:57.967Z,16.90
2019-01-04T13:13:32.911Z,28.63
2019-01-04T14:00:19.574Z,15.53
2019-01-04T14:02:42.229Z,12.83
2019-01-04T14:05:04.870Z,13.67
2019-01-04T14:07:46.898Z,13.83
2019-01-04T14:10:21.996Z,14.10
2019-01-04T14:12:57.018Z,13.60
2019-01-04T15:02:21.371Z,16.47
2019-01-04T15:04:56.243Z,21.70
2019-01-04T15:07:31.139Z,21.30
2019-01-04T15:10:06.155Z,21.43
2019-01-04T15:12:41.223Z,14.27
2019-01-04T16:02:40.144Z,13.60
2019-01-04T16:05:15.847Z,13.40
2019-01-04T16:07:50.570Z,12.70
2019-01-04T16:10:25.741Z,12.27
2019-01-04T17:01:43.628Z,13.47
2019-01-04T17:04:18.791Z,13.67
2019-01-04T17:06:53.670Z,13.77
2019-01-04T17:09:28.831Z,16.03
2019-01-04T17:12:03.687Z,13.53
2019-01-04T17:14:38.874Z,13.10
2019-01-04T18:01:39.267Z,14.67
2019-01-04T18:04:14.418Z,12.83
2019-01-04T18:06:49.579Z,13.63
2019-01-04T18:09:24.611Z,14.50
2019-01-04T18:11:59.646Z,13.47
2019-01-04T18:14:34.755Z,13.60
2019-01-04T19:01:02.234Z,12.63
2019-01-04T19:03:37.359Z,13.90
2019-01-04T19:09:03.833Z,11.87
2019-01-04T19:11:40.136Z,13.23
2019-01-04T19:14:15.210Z,12.73
2019-01-04T20:02:22.652Z,13.67
2019-01-04T20:04:57.851Z,12.93
2019-01-04T20:07:52.546Z,13.13
2019-01-04T20:10:47.532Z,13.00
2019-01-04T20:13:42.887Z,13.57
2019-01-04T21:02:16.042Z,18.00
2019-01-04T21:05:10.215Z,15.57
2019-01-04T21:08:04.384Z,17.20
2019-01-04T21:11:04.590Z,17.87
2019-01-04T21:13:58.729Z,17.13
